sensor_id;sensor_type;location;lat;lon;timestamp;P1;durP1;ratioP1;P2;durP2;ratioP2
69795;SDS011;57073;45.650;9.612;2023-11-22T00:00:35;20.40;;;10.07;;
69795;SDS011;57073;45.650;9.612;2023-11-22T00:05:35;19.23;;;10.30;;
69795;SDS011;57073;45.650;9.612;2023-11-22T00:10:36;18.70;;;9.90;;
69795;SDS011;57073;45.650;9.612;2023-11-22T00:15:36;20.97;;;10.43;;
69795;SDS011;57073;45.650;9.612;2023-11-22T00:20:36;21.40;;;10.60;;
69795;SDS011;57073;45.650;9.612;2023-11-22T00:25:37;20.07;;;10.10;;
69795;SDS011;57073;45.650;9.612;2023-11-22T00:30:37;18.83;;;10.23;;
69795;SDS011;57073;45.650;9.612;2023-11-22T00:35:38;21.70;;;10.53;;
69795;SDS011;57073;45.650;9.612;2023-11-22T00:40:38;21.43;;;10.63;;
69795;SDS011;57073;45.650;9.612;2023-11-22T00:45:38;21.20;;;10.13;;
69795;SDS011;57073;45.650;9.612;2023-11-22T00:50:39;17.43;;;9.63;;
69795;SDS011;57073;45.650;9.612;2023-11-22T00:55:39;19.37;;;9.70;;
69795;SDS011;57073;45.650;9.612;2023-11-22T01:00:40;19.58;;;9.93;;
69795;SDS011;57073;45.650;9.612;2023-11-22T01:05:40;16.38;;;9.13;;
69795;SDS011;57073;45.650;9.612;2023-11-22T01:10:42;17.83;;;10.07;;
69795;SDS011;57073;45.650;9.612;2023-11-22T01:15:42;18.47;;;9.67;;
69795;SDS011;57073;45.650;9.612;2023-11-22T01:20:44;17.73;;;9.40;;
69795;SDS011;57073;45.650;9.612;2023-11-22T01:25:45;18.87;;;10.07;;
69795;SDS011;57073;45.650;9.612;2023-11-22T01:30:45;19.20;;;9.40;;
69795;SDS011;57073;45.650;9.612;2023-11-22T01:35:45;19.27;;;9.50;;
69795;SDS011;57073;45.650;9.612;2023-11-22T01:40:46;20.98;;;9.50;;
69795;SDS011;57073;45.650;9.612;2023-11-22T01:45:47;17.53;;;9.70;;
69795;SDS011;57073;45.650;9.612;2023-11-22T01:50:48;16.60;;;9.10;;
69795;SDS011;57073;45.650;9.612;2023-11-22T01:55:49;16.33;;;8.77;;
69795;SDS011;57073;45.650;9.612;2023-11-22T02:00:50;18.73;;;8.93;;
69795;SDS011;57073;45.650;9.612;2023-11-22T02:05:51;16.20;;;8.60;;
69795;SDS011;57073;45.650;9.612;2023-11-22T02:11:00;16.75;;;8.55;;
69795;SDS011;57073;45.650;9.612;2023-11-22T02:16:04;15.20;;;8.33;;
69795;SDS011;57073;45.650;9.612;2023-11-22T02:21:05;18.50;;;8.70;;
69795;SDS011;57073;45.650;9.612;2023-11-22T02:26:06;18.30;;;9.63;;
69795;SDS011;57073;45.650;9.612;2023-11-22T02:31:06;15.33;;;8.57;;
69795;SDS011;57073;45.650;9.612;2023-11-22T02:36:07;14.30;;;8.30;;
69795;SDS011;57073;45.650;9.612;2023-11-22T02:41:07;17.58;;;9.65;;
69795;SDS011;57073;45.650;9.612;2023-11-22T02:46:09;18.13;;;8.60;;
69795;SDS011;57073;45.650;9.612;2023-11-22T02:51:10;15.80;;;8.57;;
69795;SDS011;57073;45.650;9.612;2023-11-22T02:56:11;16.33;;;8.43;;
69795;SDS011;57073;45.650;9.612;2023-11-22T03:01:12;16.43;;;8.57;;
69795;SDS011;57073;45.650;9.612;2023-11-22T03:06:12;14.53;;;8.10;;
69795;SDS011;57073;45.650;9.612;2023-11-22T03:11:12;15.77;;;7.80;;
69795;SDS011;57073;45.650;9.612;2023-11-22T03:16:13;13.83;;;7.43;;
69795;SDS011;57073;45.650;9.612;2023-11-22T03:21:13;14.60;;;7.70;;
69795;SDS011;57073;45.650;9.612;2023-11-22T03:26:14;17.17;;;7.43;;
69795;SDS011;57073;45.650;9.612;2023-11-22T03:31:14;16.47;;;7.83;;
69795;SDS011;57073;45.650;9.612;2023-11-22T03:36:15;15.63;;;7.37;;
69795;SDS011;57073;45.650;9.612;2023-11-22T03:41:16;16.60;;;8.20;;
69795;SDS011;57073;45.650;9.612;2023-11-22T03:46:19;14.80;;;7.78;;
69795;SDS011;57073;45.650;9.612;2023-11-22T03:51:20;15.13;;;8.77;;
69795;SDS011;57073;45.650;9.612;2023-11-22T03:56:20;16.73;;;8.40;;
69795;SDS011;57073;45.650;9.612;2023-11-22T04:01:21;15.80;;;7.80;;
69795;SDS011;57073;45.650;9.612;2023-11-22T04:06:21;15.50;;;7.80;;
69795;SDS011;57073;45.650;9.612;2023-11-22T04:11:23;12.90;;;7.20;;
69795;SDS011;57073;45.650;9.612;2023-11-22T04:16:23;18.50;;;8.53;;
69795;SDS011;57073;45.650;9.612;2023-11-22T04:21:23;14.47;;;7.10;;
69795;SDS011;57073;45.650;9.612;2023-11-22T04:26:24;14.93;;;7.53;;
69795;SDS011;57073;45.650;9.612;2023-11-22T04:31:24;15.35;;;7.20;;
69795;SDS011;57073;45.650;9.612;2023-11-22T04:36:25;13.53;;;7.10;;
69795;SDS011;57073;45.650;9.612;2023-11-22T04:41:25;11.90;;;6.30;;
69795;SDS011;57073;45.650;9.612;2023-11-22T04:46:26;12.67;;;6.27;;
69795;SDS011;57073;45.650;9.612;2023-11-22T04:51:26;11.33;;;6.50;;
69795;SDS011;57073;45.650;9.612;2023-11-22T04:56:29;16.25;;;7.00;;
69795;SDS011;57073;45.650;9.612;2023-11-22T05:01:33;15.17;;;7.07;;
69795;SDS011;57073;45.650;9.612;2023-11-22T05:06:33;16.93;;;6.73;;
69795;SDS011;57073;45.650;9.612;2023-11-22T05:11:34;14.00;;;6.57;;
69795;SDS011;57073;45.650;9.612;2023-11-22T05:16:34;13.00;;;6.40;;
69795;SDS011;57073;45.650;9.612;2023-11-22T05:21:34;13.60;;;5.80;;
69795;SDS011;57073;45.650;9.612;2023-11-22T05:26:35;11.82;;;5.78;;
69795;SDS011;57073;45.650;9.612;2023-11-22T05:31:36;12.43;;;6.20;;
69795;SDS011;57073;45.650;9.612;2023-11-22T05:36:37;13.37;;;6.10;;
69795;SDS011;57073;45.650;9.612;2023-11-22T05:41:38;11.33;;;5.73;;
69795;SDS011;57073;45.650;9.612;2023-11-22T05:46:38;9.80;;;5.40;;
69795;SDS011;57073;45.650;9.612;2023-11-22T05:51:38;11.67;;;5.87;;
69795;SDS011;57073;45.650;9.612;2023-11-22T05:56:39;17.07;;;5.83;;
69795;SDS011;57073;45.650;9.612;2023-11-22T06:01:39;13.00;;;5.73;;
69795;SDS011;57073;45.650;9.612;2023-11-22T06:06:39;12.40;;;5.40;;
69795;SDS011;57073;45.650;9.612;2023-11-22T06:11:41;14.33;;;5.57;;
69795;SDS011;57073;45.650;9.612;2023-11-22T06:16:41;11.68;;;5.38;;
69795;SDS011;57073;45.650;9.612;2023-11-22T06:21:42;9.47;;;5.43;;
69795;SDS011;57073;45.650;9.612;2023-11-22T06:26:43;13.43;;;5.78;;
69795;SDS011;57073;45.650;9.612;2023-11-22T06:31:45;10.97;;;5.77;;
69795;SDS011;57073;45.650;9.612;2023-11-22T06:36:46;11.20;;;6.00;;
69795;SDS011;57073;45.650;9.612;2023-11-22T06:41:46;10.83;;;5.60;;
69795;SDS011;57073;45.650;9.612;2023-11-22T06:46:47;12.20;;;5.25;;
69795;SDS011;57073;45.650;9.612;2023-11-22T06:51:48;19.63;;;8.33;;
69795;SDS011;57073;45.650;9.612;2023-11-22T06:56:48;16.00;;;6.67;;
69795;SDS011;57073;45.650;9.612;2023-11-22T07:01:50;13.73;;;5.50;;
69795;SDS011;57073;45.650;9.612;2023-11-22T07:06:50;11.17;;;5.43;;
69795;SDS011;57073;45.650;9.612;2023-11-22T07:11:50;17.90;;;8.47;;
69795;SDS011;57073;45.650;9.612;2023-11-22T07:16:51;12.60;;;5.55;;
69795;SDS011;57073;45.650;9.612;2023-11-22T07:21:52;15.50;;;6.60;;
69795;SDS011;57073;45.650;9.612;2023-11-22T07:26:53;16.80;;;6.97;;
69795;SDS011;57073;45.650;9.612;2023-11-22T07:31:54;15.93;;;5.33;;
69795;SDS011;57073;45.650;9.612;2023-11-22T07:36:56;11.33;;;5.33;;
69795;SDS011;57073;45.650;9.612;2023-11-22T07:41:56;10.10;;;5.80;;
69795;SDS011;57073;45.650;9.612;2023-11-22T07:46:57;15.80;;;6.30;;
69795;SDS011;57073;45.650;9.612;2023-11-22T07:51:59;8.48;;;4.70;;
69795;SDS011;57073;45.650;9.612;2023-11-22T07:57:00;9.20;;;5.57;;
69795;SDS011;57073;45.650;9.612;2023-11-22T08:02:01;12.05;;;5.05;;
69795;SDS011;57073;45.650;9.612;2023-11-22T08:07:01;15.77;;;6.03;;
69795;SDS011;57073;45.650;9.612;2023-11-22T08:12:02;11.33;;;5.57;;
69795;SDS011;57073;45.650;9.612;2023-11-22T08:17:03;10.50;;;5.33;;
69795;SDS011;57073;45.650;9.612;2023-11-22T08:22:05;13.18;;;5.72;;
69795;SDS011;57073;45.650;9.612;2023-11-22T08:27:06;10.13;;;5.63;;
69795;SDS011;57073;45.650;9.612;2023-11-22T08:32:07;11.70;;;4.97;;
69795;SDS011;57073;45.650;9.612;2023-11-22T08:37:08;9.13;;;4.67;;
69795;SDS011;57073;45.650;9.612;2023-11-22T08:42:08;11.17;;;5.67;;
69795;SDS011;57073;45.650;9.612;2023-11-22T08:47:09;9.23;;;4.85;;
69795;SDS011;57073;45.650;9.612;2023-11-22T08:52:09;8.03;;;3.87;;
69795;SDS011;57073;45.650;9.612;2023-11-22T08:57:13;7.10;;;3.20;;
69795;SDS011;57073;45.650;9.612;2023-11-22T09:02:14;6.18;;;3.42;;
69795;SDS011;57073;45.650;9.612;2023-11-22T09:07:15;6.00;;;2.87;;
69795;SDS011;57073;45.650;9.612;2023-11-22T09:12:16;5.68;;;2.38;;
69795;SDS011;57073;45.650;9.612;2023-11-22T09:17:19;5.22;;;2.38;;
69795;SDS011;57073;45.650;9.612;2023-11-22T09:22:20;5.97;;;2.17;;
69795;SDS011;57073;45.650;9.612;2023-11-22T09:27:21;4.38;;;2.60;;
69795;SDS011;57073;45.650;9.612;2023-11-22T09:32:22;5.67;;;2.40;;
69795;SDS011;57073;45.650;9.612;2023-11-22T09:37:23;4.10;;;2.13;;
69795;SDS011;57073;45.650;9.612;2023-11-22T09:42:25;5.33;;;1.60;;
69795;SDS011;57073;45.650;9.612;2023-11-22T09:47:28;3.35;;;1.77;;
69795;SDS011;57073;45.650;9.612;2023-11-22T09:52:33;5.17;;;1.90;;
69795;SDS011;57073;45.650;9.612;2023-11-22T09:57:34;3.45;;;1.23;;
69795;SDS011;57073;45.650;9.612;2023-11-22T10:02:39;5.90;;;1.45;;
69795;SDS011;57073;45.650;9.612;2023-11-22T10:07:40;2.13;;;1.37;;
69795;SDS011;57073;45.650;9.612;2023-11-22T10:12:44;6.63;;;1.97;;
69795;SDS011;57073;45.650;9.612;2023-11-22T10:17:47;5.63;;;2.47;;
69795;SDS011;57073;45.650;9.612;2023-11-22T10:22:56;3.40;;;1.75;;
69795;SDS011;57073;45.650;9.612;2023-11-22T10:27:57;4.37;;;1.93;;
69795;SDS011;57073;45.650;9.612;2023-11-22T10:32:58;5.10;;;2.20;;
69795;SDS011;57073;45.650;9.612;2023-11-22T10:37:59;4.33;;;1.80;;
69795;SDS011;57073;45.650;9.612;2023-11-22T10:43:02;5.55;;;2.20;;
69795;SDS011;57073;45.650;9.612;2023-11-22T10:48:03;7.73;;;2.17;;
69795;SDS011;57073;45.650;9.612;2023-11-22T10:53:05;3.30;;;1.97;;
69795;SDS011;57073;45.650;9.612;2023-11-22T10:58:11;6.40;;;2.10;;
69795;SDS011;57073;45.650;9.612;2023-11-22T11:03:14;5.00;;;2.10;;
69795;SDS011;57073;45.650;9.612;2023-11-22T11:08:18;3.57;;;2.23;;
69795;SDS011;57073;45.650;9.612;2023-11-22T11:13:21;5.95;;;2.47;;
69795;SDS011;57073;45.650;9.612;2023-11-22T11:18:23;4.00;;;2.30;;
69795;SDS011;57073;45.650;9.612;2023-11-22T11:23:26;4.75;;;2.05;;
69795;SDS011;57073;45.650;9.612;2023-11-22T11:28:27;3.97;;;2.25;;
69795;SDS011;57073;45.650;9.612;2023-11-22T11:38:49;5.70;;;2.40;;
69795;SDS011;57073;45.650;9.612;2023-11-22T11:43:52;3.73;;;2.10;;
69795;SDS011;57073;45.650;9.612;2023-11-22T11:48:53;7.87;;;2.77;;
69795;SDS011;57073;45.650;9.612;2023-11-22T11:53:54;4.82;;;2.65;;
69795;SDS011;57073;45.650;9.612;2023-11-22T11:58:56;4.72;;;2.83;;
69795;SDS011;57073;45.650;9.612;2023-11-22T12:04:00;4.33;;;2.30;;
69795;SDS011;57073;45.650;9.612;2023-11-22T12:09:01;4.63;;;2.60;;
69795;SDS011;57073;45.650;9.612;2023-11-22T12:14:03;3.20;;;2.40;;
69795;SDS011;57073;45.650;9.612;2023-11-22T12:19:04;6.23;;;2.87;;
69795;SDS011;57073;45.650;9.612;2023-11-22T12:24:05;5.20;;;3.77;;
69795;SDS011;57073;45.650;9.612;2023-11-22T12:29:07;6.25;;;2.85;;
69795;SDS011;57073;45.650;9.612;2023-11-22T12:34:09;7.03;;;3.63;;
69795;SDS011;57073;45.650;9.612;2023-11-22T12:39:10;5.20;;;3.00;;
69795;SDS011;57073;45.650;9.612;2023-11-22T12:44:17;5.75;;;3.10;;
69795;SDS011;57073;45.650;9.612;2023-11-22T12:49:18;7.10;;;3.03;;
69795;SDS011;57073;45.650;9.612;2023-11-22T12:54:19;6.37;;;3.20;;
69795;SDS011;57073;45.650;9.612;2023-11-22T12:59:21;5.05;;;2.92;;
69795;SDS011;57073;45.650;9.612;2023-11-22T13:04:21;5.50;;;3.17;;
69795;SDS011;57073;45.650;9.612;2023-11-22T13:09:22;5.13;;;2.87;;
69795;SDS011;57073;45.650;9.612;2023-11-22T13:14:22;5.37;;;3.10;;
69795;SDS011;57073;45.650;9.612;2023-11-22T13:19:23;5.37;;;3.47;;
69795;SDS011;57073;45.650;9.612;2023-11-22T13:24:24;9.98;;;3.40;;
69795;SDS011;57073;45.650;9.612;2023-11-22T13:29:25;5.50;;;3.27;;
69795;SDS011;57073;45.650;9.612;2023-11-22T13:34:26;5.17;;;3.00;;
69795;SDS011;57073;45.650;9.612;2023-11-22T13:39:26;6.73;;;3.30;;
69795;SDS011;57073;45.650;9.612;2023-11-22T13:44:26;5.07;;;3.10;;
69795;SDS011;57073;45.650;9.612;2023-11-22T13:49:27;6.30;;;3.20;;
69795;SDS011;57073;45.650;9.612;2023-11-22T13:54:27;5.33;;;3.20;;
69795;SDS011;57073;45.650;9.612;2023-11-22T13:59:27;5.93;;;3.50;;
69795;SDS011;57073;45.650;9.612;2023-11-22T14:04:28;5.90;;;2.90;;
69795;SDS011;57073;45.650;9.612;2023-11-22T14:09:28;5.63;;;3.00;;
69795;SDS011;57073;45.650;9.612;2023-11-22T14:14:29;5.20;;;2.90;;
69795;SDS011;57073;45.650;9.612;2023-11-22T14:19:30;5.03;;;2.90;;
69795;SDS011;57073;45.650;9.612;2023-11-22T14:24:30;3.67;;;2.60;;
69795;SDS011;57073;45.650;9.612;2023-11-22T14:29:36;4.32;;;2.55;;
69795;SDS011;57073;45.650;9.612;2023-11-22T14:34:37;5.30;;;3.00;;
69795;SDS011;57073;45.650;9.612;2023-11-22T14:39:39;6.23;;;2.90;;
69795;SDS011;57073;45.650;9.612;2023-11-22T14:44:40;6.55;;;3.30;;
69795;SDS011;57073;45.650;9.612;2023-11-22T14:49:40;6.17;;;3.30;;
69795;SDS011;57073;45.650;9.612;2023-11-22T14:54:42;7.55;;;3.20;;
69795;SDS011;57073;45.650;9.612;2023-11-22T14:59:44;4.80;;;2.70;;
69795;SDS011;57073;45.650;9.612;2023-11-22T15:04:45;5.00;;;2.65;;
69795;SDS011;57073;45.650;9.612;2023-11-22T15:09:47;6.53;;;3.07;;
69795;SDS011;57073;45.650;9.612;2023-11-22T15:14:47;6.47;;;3.33;;
69795;SDS011;57073;45.650;9.612;2023-11-22T15:19:48;7.20;;;3.73;;
69795;SDS011;57073;45.650;9.612;2023-11-22T15:24:48;16.23;;;6.43;;
69795;SDS011;57073;45.650;9.612;2023-11-22T15:29:49;9.83;;;4.93;;
69795;SDS011;57073;45.650;9.612;2023-11-22T15:34:50;9.57;;;4.50;;
69795;SDS011;57073;45.650;9.612;2023-11-22T15:39:50;12.60;;;5.27;;
69795;SDS011;57073;45.650;9.612;2023-11-22T15:44:50;13.10;;;5.90;;
69795;SDS011;57073;45.650;9.612;2023-11-22T15:49:51;21.95;;;4.82;;
69795;SDS011;57073;45.650;9.612;2023-11-22T15:54:54;11.73;;;5.27;;
69795;SDS011;57073;45.650;9.612;2023-11-22T15:59:54;11.80;;;5.20;;
69795;SDS011;57073;45.650;9.612;2023-11-22T16:04:55;11.80;;;4.73;;
69795;SDS011;57073;45.650;9.612;2023-11-22T16:09:55;15.60;;;5.20;;
69795;SDS011;57073;45.650;9.612;2023-11-22T16:14:56;22.73;;;5.70;;
69795;SDS011;57073;45.650;9.612;2023-11-22T16:19:57;22.67;;;4.93;;
69795;SDS011;57073;45.650;9.612;2023-11-22T16:25:00;39.37;;;7.30;;
69795;SDS011;57073;45.650;9.612;2023-11-22T16:30:01;36.43;;;7.07;;
69795;SDS011;57073;45.650;9.612;2023-11-22T16:35:03;30.38;;;7.90;;
69795;SDS011;57073;45.650;9.612;2023-11-22T16:40:06;28.25;;;6.45;;
69795;SDS011;57073;45.650;9.612;2023-11-22T16:45:08;20.87;;;5.60;;
69795;SDS011;57073;45.650;9.612;2023-11-22T16:50:10;23.23;;;6.20;;
69795;SDS011;57073;45.650;9.612;2023-11-22T16:55:11;21.10;;;6.50;;
69795;SDS011;57073;45.650;9.612;2023-11-22T17:00:12;20.38;;;6.53;;
69795;SDS011;57073;45.650;9.612;2023-11-22T17:05:18;35.20;;;8.13;;
69795;SDS011;57073;45.650;9.612;2023-11-22T17:10:19;26.93;;;6.80;;
69795;SDS011;57073;45.650;9.612;2023-11-22T17:15:21;15.02;;;6.90;;
69795;SDS011;57073;45.650;9.612;2023-11-22T17:20:22;15.77;;;6.67;;
69795;SDS011;57073;45.650;9.612;2023-11-22T17:25:22;16.73;;;7.30;;
69795;SDS011;57073;45.650;9.612;2023-11-22T17:30:23;22.83;;;7.73;;
69795;SDS011;57073;45.650;9.612;2023-11-22T17:35:23;20.30;;;7.60;;
69795;SDS011;57073;45.650;9.612;2023-11-22T17:40:25;22.02;;;7.88;;
69795;SDS011;57073;45.650;9.612;2023-11-22T17:45:25;16.27;;;8.00;;
69795;SDS011;57073;45.650;9.612;2023-11-22T17:50:27;23.98;;;8.60;;
69795;SDS011;57073;45.650;9.612;2023-11-22T17:55:27;18.63;;;8.10;;
69795;SDS011;57073;45.650;9.612;2023-11-22T18:00:28;17.73;;;8.50;;
69795;SDS011;57073;45.650;9.612;2023-11-22T18:05:29;14.93;;;8.77;;
69795;SDS011;57073;45.650;9.612;2023-11-22T18:10:29;14.60;;;8.43;;
69795;SDS011;57073;45.650;9.612;2023-11-22T18:15:30;14.33;;;8.33;;
69795;SDS011;57073;45.650;9.612;2023-11-22T18:20:31;19.27;;;9.60;;
69795;SDS011;57073;45.650;9.612;2023-11-22T18:25:31;17.67;;;9.20;;
69795;SDS011;57073;45.650;9.612;2023-11-22T18:30:32;25.98;;;10.50;;
69795;SDS011;57073;45.650;9.612;2023-11-22T18:35:32;27.87;;;12.87;;
69795;SDS011;57073;45.650;9.612;2023-11-22T18:40:32;28.40;;;15.80;;
69795;SDS011;57073;45.650;9.612;2023-11-22T18:45:33;34.63;;;13.27;;
69795;SDS011;57073;45.650;9.612;2023-11-22T18:50:34;30.40;;;14.47;;
69795;SDS011;57073;45.650;9.612;2023-11-22T18:55:34;18.97;;;11.40;;
69795;SDS011;57073;45.650;9.612;2023-11-22T19:00:35;19.57;;;11.03;;
69795;SDS011;57073;45.650;9.612;2023-11-22T19:05:35;23.70;;;12.33;;
69795;SDS011;57073;45.650;9.612;2023-11-22T19:10:36;23.97;;;12.07;;
69795;SDS011;57073;45.650;9.612;2023-11-22T19:15:43;24.47;;;12.23;;
69795;SDS011;57073;45.650;9.612;2023-11-22T19:20:45;25.20;;;12.75;;
69795;SDS011;57073;45.650;9.612;2023-11-22T19:25:46;23.23;;;12.63;;
69795;SDS011;57073;45.650;9.612;2023-11-22T19:30:47;23.60;;;12.88;;
69795;SDS011;57073;45.650;9.612;2023-11-22T19:35:48;21.13;;;12.23;;
69795;SDS011;57073;45.650;9.612;2023-11-22T19:40:49;25.52;;;12.50;;
69795;SDS011;57073;45.650;9.612;2023-11-22T19:45:49;22.03;;;12.67;;
69795;SDS011;57073;45.650;9.612;2023-11-22T19:50:53;17.63;;;9.93;;
69795;SDS011;57073;45.650;9.612;2023-11-22T19:55:53;18.30;;;9.87;;
69795;SDS011;57073;45.650;9.612;2023-11-22T20:00:54;14.38;;;9.57;;
69795;SDS011;57073;45.650;9.612;2023-11-22T20:05:55;15.30;;;9.50;;
69795;SDS011;57073;45.650;9.612;2023-11-22T20:10:55;16.10;;;9.20;;
69795;SDS011;57073;45.650;9.612;2023-11-22T20:15:56;17.08;;;8.95;;
69795;SDS011;57073;45.650;9.612;2023-11-22T20:20:57;16.07;;;9.57;;
69795;SDS011;57073;45.650;9.612;2023-11-22T20:25:58;16.20;;;9.95;;
69795;SDS011;57073;45.650;9.612;2023-11-22T20:30:58;16.40;;;9.40;;
69795;SDS011;57073;45.650;9.612;2023-11-22T20:35:59;16.00;;;9.47;;
69795;SDS011;57073;45.650;9.612;2023-11-22T20:40:59;15.23;;;9.10;;
69795;SDS011;57073;45.650;9.612;2023-11-22T20:45:59;13.30;;;8.27;;
69795;SDS011;57073;45.650;9.612;2023-11-22T20:51:01;20.00;;;9.88;;
69795;SDS011;57073;45.650;9.612;2023-11-22T20:56:03;15.07;;;9.20;;
69795;SDS011;57073;45.650;9.612;2023-11-22T21:01:04;14.52;;;8.82;;
69795;SDS011;57073;45.650;9.612;2023-11-22T21:06:05;15.57;;;9.60;;
69795;SDS011;57073;45.650;9.612;2023-11-22T21:11:06;14.07;;;8.75;;
69795;SDS011;57073;45.650;9.612;2023-11-22T21:16:06;12.35;;;7.90;;
69795;SDS011;57073;45.650;9.612;2023-11-22T21:21:07;17.90;;;8.47;;
69795;SDS011;57073;45.650;9.612;2023-11-22T21:26:14;15.07;;;8.60;;
69795;SDS011;57073;45.650;9.612;2023-11-22T21:31:15;12.13;;;7.30;;
69795;SDS011;57073;45.650;9.612;2023-11-22T21:36:19;14.70;;;8.00;;
69795;SDS011;57073;45.650;9.612;2023-11-22T21:41:19;11.30;;;7.13;;
69795;SDS011;57073;45.650;9.612;2023-11-22T21:46:20;17.23;;;9.17;;
69795;SDS011;57073;45.650;9.612;2023-11-22T21:51:27;21.70;;;9.30;;
69795;SDS011;57073;45.650;9.612;2023-11-22T21:56:29;15.03;;;8.50;;
69795;SDS011;57073;45.650;9.612;2023-11-22T22:01:29;16.70;;;9.40;;
69795;SDS011;57073;45.650;9.612;2023-11-22T22:06:30;16.07;;;8.27;;
69795;SDS011;57073;45.650;9.612;2023-11-22T22:11:30;15.67;;;8.13;;
69795;SDS011;57073;45.650;9.612;2023-11-22T22:16:31;15.83;;;8.50;;
69795;SDS011;57073;45.650;9.612;2023-11-22T22:21:31;13.33;;;8.00;;
69795;SDS011;57073;45.650;9.612;2023-11-22T22:26:32;12.87;;;7.80;;
69795;SDS011;57073;45.650;9.612;2023-11-22T22:31:32;15.43;;;8.77;;
69795;SDS011;57073;45.650;9.612;2023-11-22T22:36:32;13.27;;;7.93;;
69795;SDS011;57073;45.650;9.612;2023-11-22T22:41:33;15.33;;;8.47;;
69795;SDS011;57073;45.650;9.612;2023-11-22T22:46:33;14.83;;;7.93;;
69795;SDS011;57073;45.650;9.612;2023-11-22T22:51:33;10.63;;;6.03;;
69795;SDS011;57073;45.650;9.612;2023-11-22T22:56:34;12.53;;;5.67;;
69795;SDS011;57073;45.650;9.612;2023-11-22T23:01:34;9.77;;;5.40;;
69795;SDS011;57073;45.650;9.612;2023-11-22T23:06:35;8.63;;;5.23;;
69795;SDS011;57073;45.650;9.612;2023-11-22T23:11:37;13.63;;;5.28;;
69795;SDS011;57073;45.650;9.612;2023-11-22T23:16:37;8.63;;;4.70;;
69795;SDS011;57073;45.650;9.612;2023-11-22T23:21:38;7.87;;;4.47;;
69795;SDS011;57073;45.650;9.612;2023-11-22T23:26:38;7.20;;;4.10;;
69795;SDS011;57073;45.650;9.612;2023-11-22T23:31:39;10.20;;;4.07;;
69795;SDS011;57073;45.650;9.612;2023-11-22T23:36:41;7.60;;;3.53;;
69795;SDS011;57073;45.650;9.612;2023-11-22T23:41:41;6.53;;;2.90;;
69795;SDS011;57073;45.650;9.612;2023-11-22T23:46:42;5.45;;;3.10;;
69795;SDS011;57073;45.650;9.612;2023-11-22T23:51:42;6.33;;;3.00;;
69795;SDS011;57073;45.650;9.612;2023-11-22T23:56:42;5.50;;;2.85;;
